Time;durP1;ratioP1;P1;durP2;ratioP2;P2;SDS_P1;SDS_P2;PMS_P1;PMS_P2;Temp;Humidity;BMP_temperature;BMP_pressure;BME280_temperature;BME280_humidity;BME280_pressure;Samples;Min_cycle;Max_cycle;Signal;HPM_P1;HPM_P2
2022/03/02 00:01:01;;;;;;;;;;;;;;;;;;6280033;22;19914;-91
2022/03/02 00:03:27;;;;;;;;;;;;;;;;;;6279125;22;19925;-91
2022/03/02 00:05:53;;;;;;;;;;;;;;;;;;6278969;22;19925;-91
2022/03/02 00:08:20;;;;;;;;;;;;;;;;;;6279513;22;19968;-92
2022/03/02 00:10:46;;;;;;;;;;;;;;;;;;6304852;22;19919;-91
2022/03/02 00:13:17;;;;;;;;;;;;;;;;;;6305767;22;19984;-91
2022/03/02 00:15:43;;;;;;;;;;;;;;;;;;6279666;22;19925;-92
2022/03/02 00:18:11;;;;;;;;;;;;;;;;;;6279963;22;19946;-91
2022/03/02 00:20:40;;;;;;;;;;;;;;;;;;6304928;22;19997;-91
2022/03/02 00:23:06;;;;;;;;;;;;;;;;;;6303123;22;19982;-92
2022/03/02 00:25:35;;;;;;;;;;;;;;;;;;6306344;22;19961;-91
2022/03/02 00:28:01;;;;;;;;;;;;;;;;;;6306477;22;19918;-91
2022/03/02 00:30:34;;;;;;;;;;;;;;;;;;6331878;22;19930;-89
2022/03/02 00:33:00;;;;;;;;;;;;;;;;;;6331637;22;19915;-91
2022/03/02 00:35:26;;;;;;;;;;;;;;;;;;6332537;22;20256;-91
2022/03/02 00:37:52;;;;;;;;;;;;;;;;;;6305484;22;19919;-92
2022/03/02 00:40:27;;;;;;;;;;;;;;;;;;6305408;22;19946;-90
2022/03/02 00:42:53;;;;;;;;;;;;;;;;;;6305558;22;20326;-90
2022/03/02 00:45:21;;;;;;;;;;;;;;;;;;6329980;22;19993;-91
2022/03/02 00:47:50;;;;;;;;;;;;;;;;;;6330993;22;20357;-91
2022/03/02 00:50:19;;;;;;;;;;;;;;;;;;6306091;22;19929;-91
2022/03/02 00:52:45;;;;;;;;;;;;;;;;;;6305751;22;20242;-91
2022/03/02 00:55:11;;;;;;;;;;;;;;;;;;6305625;22;19914;-90
2022/03/02 00:57:37;;;;;;;;;;;;;;;;;;6306672;22;19922;-90
2022/03/02 01:00:03;;;;;;;;;;;;;;;;;;6305360;22;20392;-90
2022/03/02 01:02:29;;;;;;;;;;;;;;;;;;6305730;22;19918;-91
2022/03/02 01:04:55;;;;;;;;;;;;;;;;;;6330971;22;20301;-90
2022/03/02 01:07:21;;;;;;;;;;;;;;;;;;6332011;22;19918;-91
2022/03/02 01:09:49;;;;;;;;;;;;;;;;;;6306073;22;20084;-91
2022/03/02 01:12:18;;;;;;;;;;;;;;;;;;6305630;22;20562;-91
2022/03/02 01:14:44;;;;;;;;;;;;;;;;;;6331225;22;19918;-91
2022/03/02 01:17:10;;;;;;;;;;;;;;;;;;6305531;22;20367;-90
2022/03/02 01:19:37;;;;;;;;;;;;;;;;;;6306120;22;19937;-91
2022/03/02 01:22:03;;;;;;;;;;;;;;;;;;6331982;22;19918;-91
2022/03/02 01:24:34;;;;;;;;;;;;;;;;;;6305820;22;19925;-91
2022/03/02 01:27:03;;;;;;;;;;;;;;;;;;6305108;22;19918;-90
2022/03/02 01:29:30;;;;;;;;;;;;;;;;;;6305791;22;19926;-91
2022/03/02 01:31:56;;;;;;;;;;;;;;;;;;6331415;22;19949;-91
2022/03/02 01:34:22;;;;;;;;;;;;;;;;;;6330557;22;20019;-91
2022/03/02 01:36:48;;;;;;;;;;;;;;;;;;6305579;22;19926;-92
2022/03/02 01:39:31;;;;;;;;;;;;;;;;;;6306051;22;19964;-90
2022/03/02 01:42:30;;;;;;;;;;;;;;;;;;6305095;22;19937;-91
2022/03/02 01:44:49;;;;;;;;;;;;;;;;;;6325255;22;20350;-92
2022/03/02 01:47:21;;;;;;;;;;;;;;;;;;6305269;22;19915;-91
2022/03/02 01:49:50;;;;;;;;;;;;;;;;;;6304319;22;19998;-91
2022/03/02 01:52:16;;;;;;;;;;;;;;;;;;6303747;22;19962;-92
2022/03/02 01:54:47;;;;;;;;;;;;;;;;;;6305726;22;19992;-92
2022/03/02 01:57:14;;;;;;;;;;;;;;;;;;6305702;22;19918;-92
2022/03/02 01:59:43;;;;;;;;;;;;;;;;;;6329847;22;19918;-91
2022/03/02 02:02:09;;;;;;;;;;;;;;;;;;6304227;22;19925;-91
2022/03/02 02:07:33;;;;;;;;;;;;;;;;;;6262285;22;19991;-92
2022/03/02 02:10:02;;;;;;;;;;;;;;;;;;6303997;22;20346;-91
2022/03/02 02:12:28;;;;;;;;;;;;;;;;;;6304001;22;19926;-91
2022/03/02 02:14:54;;;;;;;;;;;;;;;;;;6304329;22;19957;-91
2022/03/02 02:17:20;;;;;;;;;;;;;;;;;;6329517;22;20250;-91
2022/03/02 02:19:46;;;;;;;;;;;;;;;;;;6304254;22;19925;-91
2022/03/02 02:22:12;;;;;;;;;;;;;;;;;;6302971;22;19964;-92
2022/03/02 02:24:38;;;;;;;;;;;;;;;;;;6304910;22;19960;-92
2022/03/02 02:27:25;;;;;;;;;;;;;;;;;;6303962;22;19922;-92
2022/03/02 02:29:50;;;;;;;;;;;;;;;;;;6329685;22;19923;-91
2022/03/02 02:32:16;;;;;;;;;;;;;;;;;;6329076;22;19965;-90
2022/03/02 02:34:42;;;;;;;;;;;;;;;;;;6303944;22;20208;-90
2022/03/02 02:37:08;;;;;;;;;;;;;;;;;;6328207;22;19933;-89
2022/03/02 02:39:36;;;;;;;;;;;;;;;;;;6302734;22;19918;-90
2022/03/02 02:42:02;;;;;;;;;;;;;;;;;;6328774;22;20362;-90
2022/03/02 02:44:28;;;;;;;;;;;;;;;;;;6303266;22;20019;-90
2022/03/02 02:46:54;;;;;;;;;;;;;;;;;;6302556;22;19995;-90
2022/03/02 02:49:20;;;;;;;;;;;;;;;;;;6302792;22;20111;-91
2022/03/02 02:51:46;;;;;;;;;;;;;;;;;;6303378;22;19954;-92
2022/03/02 02:54:12;;;;;;;;;;;;;;;;;;6305847;22;19922;-91
2022/03/02 02:56:38;;;;;;;;;;;;;;;;;;6305868;22;19923;-91
2022/03/02 02:59:04;;;;;;;;;;;;;;;;;;6304778;22;20242;-91
2022/03/02 03:01:30;;;;;;;;;;;;;;;;;;6306569;22;19919;-91
2022/03/02 03:03:56;;;;;;;;;;;;;;;;;;6304409;22;19918;-91
2022/03/02 03:06:22;;;;;;;;;;;;;;;;;;6306220;22;19945;-91
2022/03/02 03:08:48;;;;;;;;;;;;;;;;;;6332410;22;20330;-91
2022/03/02 03:11:14;;;;;;;;;;;;;;;;;;6332255;22;19964;-90
2022/03/02 03:13:43;;;;;;;;;;;;;;;;;;6307102;22;19925;-91
2022/03/02 03:16:09;;;;;;;;;;;;;;;;;;6305598;22;19989;-91
2022/03/02 03:18:35;;;;;;;;;;;;;;;;;;6332658;22;20287;-91
2022/03/02 03:21:01;;;;;;;;;;;;;;;;;;6331215;22;19922;-91
2022/03/02 03:23:28;;;;;;;;;;;;;;;;;;6332085;22;19930;-91
2022/03/02 03:25:54;;;;;;;;;;;;;;;;;;6305555;22;19918;-90
2022/03/02 03:28:20;;;;;;;;;;;;;;;;;;6332628;22;19925;-90
2022/03/02 03:30:49;;;;;;;;;;;;;;;;;;6307969;22;20315;-91
2022/03/02 03:33:15;;;;;;;;;;;;;;;;;;6308079;22;20299;-91
2022/03/02 03:35:41;;;;;;;;;;;;;;;;;;6308067;22;19918;-91
2022/03/02 03:38:07;;;;;;;;;;;;;;;;;;6307769;22;19922;-91
2022/03/02 03:40:33;;;;;;;;;;;;;;;;;;6307156;22;19926;-92
2022/03/02 03:42:59;;;;;;;;;;;;;;;;;;6307138;22;19941;-92
2022/03/02 03:45:28;;;;;;;;;;;;;;;;;;6307024;22;19926;-90
2022/03/02 03:47:54;;;;;;;;;;;;;;;;;;6307886;22;20345;-91
2022/03/02 03:50:20;;;;;;;;;;;;;;;;;;6307496;22;19980;-91
2022/03/02 03:52:46;;;;;;;;;;;;;;;;;;6332396;22;20239;-91
2022/03/02 03:55:12;;;;;;;;;;;;;;;;;;6306868;22;20377;-91
2022/03/02 03:57:38;;;;;;;;;;;;;;;;;;6307042;22;19918;-91
2022/03/02 04:00:04;;;;;;;;;;;;;;;;;;6307015;22;19918;-91
2022/03/02 04:02:30;;;;;;;;;;;;;;;;;;6307007;22;19959;-90
2022/03/02 04:04:56;;;;;;;;;;;;;;;;;;6307718;22;19914;-91
2022/03/02 04:07:22;;;;;;;;;;;;;;;;;;6307131;22;19914;-90
2022/03/02 04:09:48;;;;;;;;;;;;;;;;;;6306812;22;19937;-91
2022/03/02 04:12:17;;;;;;;;;;;;;;;;;;6306818;22;20338;-91
2022/03/02 04:14:43;;;;;;;;;;;;;;;;;;6333615;22;19964;-92
2022/03/02 04:17:09;;;;;;;;;;;;;;;;;;6306320;22;19919;-91
2022/03/02 04:19:35;;;;;;;;;;;;;;;;;;6307792;22;19919;-91
2022/03/02 04:22:04;;;;;;;;;;;;;;;;;;6332475;22;19985;-91
2022/03/02 04:24:30;;;;;;;;;;;;;;;;;;6307139;22;19919;-91
2022/03/02 04:26:56;;;;;;;;;;;;;;;;;;6306109;22;19925;-92
2022/03/02 04:29:22;;;;;;;;;;;;;;;;;;6305504;22;19945;-91
2022/03/02 04:31:48;;;;;;;;;;;;;;;;;;6305380;22;19983;-92
2022/03/02 04:34:14;;;;;;;;;;;;;;;;;;6306786;22;20327;-91
2022/03/02 04:36:40;;;;;;;;;;;;;;;;;;6306594;22;19918;-91
2022/03/02 04:39:06;;;;;;;;;;;;;;;;;;6306092;22;19926;-90
2022/03/02 04:41:35;;;;;;;;;;;;;;;;;;6306622;22;19922;-91
2022/03/02 04:44:01;;;;;;;;;;;;;;;;;;6305501;22;19966;-91
2022/03/02 04:46:27;;;;;;;;;;;;;;;;;;6330881;22;19945;-92
2022/03/02 04:48:53;;;;;;;;;;;;;;;;;;6332695;22;19923;-92
2022/03/02 04:51:19;;;;;;;;;;;;;;;;;;6306055;22;19915;-91
2022/03/02 04:53:51;;;;;;;;;;;;;;;;;;6305952;22;20014;-91
2022/03/02 04:56:20;;;;;;;;;;;;;;;;;;6306598;22;20253;-90
2022/03/02 04:58:49;;;;;;;;;;;;;;;;;;6331920;22;20372;-91
2022/03/02 05:01:15;;;;;;;;;;;;;;;;;;6305286;22;19918;-91
2022/03/02 05:03:41;;;;;;;;;;;;;;;;;;6305382;22;19921;-90
2022/03/02 05:06:07;;;;;;;;;;;;;;;;;;6305069;22;19924;-90
2022/03/02 05:08:33;;;;;;;;;;;;;;;;;;6305484;22;19950;-90
2022/03/02 05:10:59;;;;;;;;;;;;;;;;;;6305332;22;20622;-90
2022/03/02 05:13:25;;;;;;;;;;;;;;;;;;6331338;22;19919;-91
2022/03/02 05:15:51;;;;;;;;;;;;;;;;;;6305826;22;19915;-91
2022/03/02 05:18:17;;;;;;;;;;;;;;;;;;6305656;22;19960;-91
2022/03/02 05:20:43;;;;;;;;;;;;;;;;;;6305932;22;19985;-91
2022/03/02 05:23:09;;;;;;;;;;;;;;;;;;6332257;22;19918;-91
2022/03/02 05:25:35;;;;;;;;;;;;;;;;;;6305638;22;20522;-92
2022/03/02 05:28:01;;;;;;;;;;;;;;;;;;6306007;22;20020;-91
2022/03/02 05:30:27;;;;;;;;;;;;;;;;;;6306625;22;19934;-91
2022/03/02 05:32:53;;;;;;;;;;;;;;;;;;6306551;22;20358;-92
2022/03/02 05:35:19;;;;;;;;;;;;;;;;;;6305714;22;19915;-91
2022/03/02 05:37:45;;;;;;;;;;;;;;;;;;6305941;22;19914;-91
2022/03/02 05:40:14;;;;;;;;;;;;;;;;;;6333376;22;19968;-91
2022/03/02 05:42:40;;;;;;;;;;;;;;;;;;6307126;22;19915;-91
2022/03/02 05:45:06;;;;;;;;;;;;;;;;;;6306724;22;19963;-91
2022/03/02 05:47:32;;;;;;;;;;;;;;;;;;6332817;22;19921;-91
2022/03/02 05:49:58;;;;;;;;;;;;;;;;;;6305569;22;19942;-91
2022/03/02 05:52:27;;;;;;;;;;;;;;;;;;6330821;22;20334;-91
2022/03/02 05:54:55;;;;;;;;;;;;;;;;;;6305841;22;20327;-91
2022/03/02 05:57:21;;;;;;;;;;;;;;;;;;6306152;22;19944;-91
2022/03/02 05:59:50;;;;;;;;;;;;;;;;;;6332613;22;19919;-91
2022/03/02 06:02:16;;;;;;;;;;;;;;;;;;6331704;22;19918;-91
2022/03/02 06:04:42;;;;;;;;;;;;;;;;;;6304588;22;20342;-90
2022/03/02 06:07:10;;;;;;;;;;;;;;;;;;6305903;22;20234;-91
2022/03/02 06:09:36;;;;;;;;;;;;;;;;;;6306432;22;19927;-91
2022/03/02 06:12:02;;;;;;;;;;;;;;;;;;6305821;22;19922;-91
2022/03/02 06:14:28;;;;;;;;;;;;;;;;;;6305981;22;19919;-90
2022/03/02 06:16:54;;;;;;;;;;;;;;;;;;6331857;22;20014;-90
2022/03/02 06:19:20;;;;;;;;;;;;;;;;;;6306114;22;20314;-90
2022/03/02 06:21:56;;;;;;;;;;;;;;;;;;;;;
2022/03/02 06:24:22;;;;;;;;;;;;;;;;;;6330730;22;19954;-90
2022/03/02 06:26:48;;;;;;;;;;;;;;;;;;6332732;22;20326;-90
2022/03/02 06:29:14;;;;;;;;;;;;;;;;;;6333967;22;19930;-89
2022/03/02 06:31:40;;;;;;;;;;;;;;;;;;6307168;22;19914;-89
2022/03/02 06:34:06;;;;;;;;;;;;;;;;;;6303371;22;19921;-89
2022/03/02 06:36:35;;;;;;;;;;;;;;;;;;6330499;22;19918;-90
2022/03/02 06:39:01;;;;;;;;;;;;;;;;;;6332208;22;19914;-89
2022/03/02 06:41:27;;;;;;;;;;;;;;;;;;6306571;22;19967;-89
2022/03/02 06:43:53;;;;;;;;;;;;;;;;;;6332263;22;19918;-89
2022/03/02 06:46:19;;;;;;;;;;;;;;;;;;6333251;22;19925;-87
2022/03/02 06:48:45;;;;;;;;;;;;;;;;;;6306166;22;20014;-88
2022/03/02 06:51:11;;;;;;;;;;;;;;;;;;6305943;22;20216;-88
2022/03/02 06:53:37;;;;;;;;;;;;;;;;;;6306004;22;19919;-88
2022/03/02 06:56:05;;;;;;;;;;;;;;;;;;6332597;22;19920;-87
2022/03/02 06:58:31;;;;;;;;;;;;;;;;;;6306064;22;19997;-87
2022/03/02 07:00:57;;;;;;;;;;;;;;;;;;6327607;22;20149;-87
2022/03/02 07:03:23;;;;;;;;;;;;;;;;;;6330963;22;19915;-87
2022/03/02 07:05:49;;;;;;;;;;;;;;;;;;6329877;22;20357;-89
2022/03/02 07:08:15;;;;;;;;;;;;;;;;;;6305147;22;20335;-87
2022/03/02 07:10:41;;;;;;;;;;;;;;;;;;6305751;22;19923;-88
2022/03/02 07:13:07;;;;;;;;;;;;;;;;;;6331990;22;19997;-87
2022/03/02 07:15:33;;;;;;;;;;;;;;;;;;6305752;22;20288;-87
2022/03/02 07:17:59;;;;;;;;;;;;;;;;;;6332428;22;19993;-88
2022/03/02 07:20:27;;;;;;;;;;;;;;;;;;6331650;22;19919;-88
2022/03/02 07:22:52;;;;;;;;;;;;;;;;;;6332359;22;19919;-86
2022/03/02 07:25:18;;;;;;;;;;;;;;;;;;6332048;22;20420;-86
2022/03/02 07:27:45;;;;;;;;;;;;;;;;;;6305809;22;19919;-86
2022/03/02 07:30:11;;;;;;;;;;;;;;;;;;6306077;22;19930;-87
2022/03/02 07:32:41;;;;;;;;;;;;;;;;;;6306005;22;19914;-85
2022/03/02 07:35:06;;;;;;;;;;;;;;;;;;6329987;22;19918;-86
2022/03/02 07:37:32;;;;;;;;;;;;;;;;;;6306788;22;19968;-85
2022/03/02 07:39:59;;;;;;;;;;;;;;;;;;6305043;22;19950;-85
2022/03/02 07:42:25;;;;;;;;;;;;;;;;;;6331867;22;19989;-85
2022/03/02 07:44:51;;;;;;;;;;;;;;;;;;6331901;22;19960;-86
2022/03/02 07:47:17;;;;;;;;;;;;;;;;;;6331632;22;19968;-85
2022/03/02 07:49:43;;;;;;;;;;;;;;;;;;6331543;22;19932;-86
2022/03/02 07:52:09;;;;;;;;;;;;;;;;;;6333395;22;19918;-85
2022/03/02 07:54:35;;;;;;;;;;;;;;;;;;6331991;22;19922;-87
2022/03/02 07:57:01;;;;;;;;;;;;;;;;;;6304946;22;19918;-86
2022/03/02 07:59:27;;;;;;;;;;;;;;;;;;6331863;22;20383;-86
2022/03/02 08:01:53;;;;;;;;;;;;;;;;;;6305360;22;19950;-86
2022/03/02 08:04:23;;;;;;;;;;;;;;;;;;6331586;22;20234;-85
2022/03/02 08:06:49;;;;;;;;;;;;;;;;;;6330516;22;20394;-87
2022/03/02 08:09:15;;;;;;;;;;;;;;;;;;6329844;22;20396;-86
2022/03/02 08:11:41;;;;;;;;;;;;;;;;;;6332116;22;19915;-86
2022/03/02 08:14:07;;;;;;;;;;;;;;;;;;6305918;22;19962;-85
2022/03/02 08:16:33;;;;;;;;;;;;;;;;;;6333627;22;19922;-86
2022/03/02 08:19:01;;;;;;;;;;;;;;;;;;6331565;22;19915;-86
2022/03/02 08:21:27;;;;;;;;;;;;;;;;;;6303521;22;19992;-86
2022/03/02 08:23:53;;;;;;;;;;;;;;;;;;6330363;22;19923;-87
2022/03/02 08:26:19;;;;;;;;;;;;;;;;;;6304598;22;19953;-86
2022/03/02 08:28:45;;;;;;;;;;;;;;;;;;6304047;22;19995;-86
2022/03/02 08:31:11;;;;;;;;;;;;;;;;;;6304424;22;19915;-86
2022/03/02 08:33:37;;;;;;;;;;;;;;;;;;6305501;22;19993;-86
2022/03/02 08:36:03;;;;;;;;;;;;;;;;;;6305837;22;19940;-86
2022/03/02 08:38:29;;;;;;;;;;;;;;;;;;6306746;22;19915;-86
2022/03/02 08:40:55;;;;;;;;;;;;;;;;;;6306962;22;19926;-86
2022/03/02 08:43:21;;;;;;;;;;;;;;;;;;6330089;22;19925;-86
2022/03/02 08:45:50;;;;;;;;;;;;;;;;;;6330308;22;19922;-87
2022/03/02 08:48:16;;;;;;;;;;;;;;;;;;6332091;22;20005;-88
2022/03/02 08:50:45;;;;;;;;;;;;;;;;;;6306913;22;20459;-90
2022/03/02 08:53:11;;;;;;;;;;;;;;;;;;6303667;22;19926;-87
2022/03/02 08:55:37;;;;;;;;;;;;;;;;;;6328656;22;20009;-87
2022/03/02 08:58:03;;;;;;;;;;;;;;;;;;6329455;22;19959;-88
2022/03/02 09:00:29;;;;;;;;;;;;;;;;;;6303851;22;19967;-87
2022/03/02 09:02:55;;;;;;;;;;;;;;;;;;6304238;22;19925;-88
2022/03/02 09:05:21;;;;;;;;;;;;;;;;;;6329826;22;20423;-87
2022/03/02 09:07:47;;;;;;;;;;;;;;;;;;6304574;22;19936;-87
2022/03/02 09:10:13;;;;;;;;;;;;;;;;;;6331081;22;20278;-88
2022/03/02 09:12:42;;;;;;;;;;;;;;;;;;6333754;22;19914;-89
2022/03/02 09:15:08;;;;;;;;;;;;;;;;;;6334573;22;19918;-87
2022/03/02 09:17:35;;;;;;;;;;;;;;;;;;6331468;22;19914;-86
2022/03/02 09:20:02;;;;;;;;;;;;;;;;;;6330140;22;19918;-87
2022/03/02 09:22:29;;;;;;;;;;;;;;;;;;6303128;22;19918;-86
2022/03/02 09:24:55;;;;;;;;;;;;;;;;;;6331685;22;19914;-87
2022/03/02 09:27:27;;;;;;;;;;;;;;;;;;6330525;22;20563;-88
2022/03/02 09:29:53;;;;;;;;;;;;;;;;;;6302920;22;19918;-87
2022/03/02 09:32:19;;;;;;;;;;;;;;;;;;6303800;22;19918;-86
2022/03/02 09:34:48;;;;;;;;;;;;;;;;;;6304916;22;19914;-88
2022/03/02 09:37:14;;;;;;;;;;;;;;;;;;6329519;22;19929;-87
2022/03/02 09:39:40;;;;;;;;;;;;;;;;;;6303404;22;19954;-87
2022/03/02 09:42:06;;;;;;;;;;;;;;;;;;6329887;22;19918;-87
2022/03/02 09:44:31;;;;;;;;;;;;;;;;;;6331078;22;20303;-87
2022/03/02 09:46:57;;;;;;;;;;;;;;;;;;6329115;22;19980;-87
2022/03/02 09:49:23;;;;;;;;;;;;;;;;;;6330152;22;20246;-88
2022/03/02 09:51:49;;;;;;;;;;;;;;;;;;6303822;22;19925;-87
2022/03/02 09:54:15;;;;;;;;;;;;;;;;;;6304447;22;19922;-87
2022/03/02 09:56:41;;;;;;;;;;;;;;;;;;6306078;22;19961;-87
2022/03/02 09:59:07;;;;;;;;;;;;;;;;;;6304227;22;20258;-87
2022/03/02 10:01:38;;;;;;;;;;;;;;;;;;6303967;22;19918;-87
2022/03/02 10:04:06;;;;;;;;;;;;;;;;;;6298896;22;19918;-87
2022/03/02 10:06:32;;;;;;;;;;;;;;;;;;6303047;22;19918;-86
2022/03/02 10:08:58;;;;;;;;;;;;;;;;;;6303523;22;19934;-87
2022/03/02 10:11:24;;;;;;;;;;;;;;;;;;6301716;22;20318;-86
2022/03/02 10:13:50;;;;;;;;;;;;;;;;;;6303403;22;19968;-87
2022/03/02 10:16:16;;;;;;;;;;;;;;;;;;6329407;22;19918;-87
2022/03/02 10:18:41;;;;;;;;;;;;;;;;;;6328088;22;19953;-87
2022/03/02 10:21:07;;;;;;;;;;;;;;;;;;6302026;22;20338;-88
2022/03/02 10:23:33;;;;;;;;;;;;;;;;;;6303417;22;19926;-88
2022/03/02 10:26:00;;;;;;;;;;;;;;;;;;6330445;22;20330;-88
2022/03/02 10:28:26;;;;;;;;;;;;;;;;;;6303085;22;19996;-89
2022/03/02 10:30:54;;;;;;;;;;;;;;;;;;6272478;22;20118;-88
2022/03/02 10:33:20;;;;;;;;;;;;;;;;;;6272168;22;19919;-88
2022/03/02 10:35:46;;;;;;;;;;;;;;;;;;6274671;22;19926;-89
2022/03/02 10:38:12;;;;;;;;;;;;;;;;;;6300299;22;20259;-88
2022/03/02 10:40:38;;;;;;;;;;;;;;;;;;6273513;22;19915;-88
2022/03/02 10:43:05;;;;;;;;;;;;;;;;;;6272931;22;19918;-88
2022/03/02 10:45:31;;;;;;;;;;;;;;;;;;6297633;22;19918;-88
2022/03/02 10:48:00;;;;;;;;;;;;;;;;;;6270453;22;20004;-88
2022/03/02 10:50:28;;;;;;;;;;;;;;;;;;6296925;22;19976;-89
2022/03/02 10:52:57;;;;;;;;;;;;;;;;;;6275946;22;19923;-89
2022/03/02 10:55:23;;;;;;;;;;;;;;;;;;6279667;22;19964;-88
2022/03/02 10:57:49;;;;;;;;;;;;;;;;;;6305761;22;19918;-89
2022/03/02 11:00:17;;;;;;;;;;;;;;;;;;6279863;22;19949;-89
2022/03/02 11:02:45;;;;;;;;;;;;;;;;;;6281795;22;19919;-88
2022/03/02 11:05:11;;;;;;;;;;;;;;;;;;6279719;22;19921;-89
2022/03/02 11:07:37;;;;;;;;;;;;;;;;;;6280637;22;19922;-89
2022/03/02 11:10:03;;;;;;;;;;;;;;;;;;6278930;22;20469;-89
2022/03/02 11:12:29;;;;;;;;;;;;;;;;;;6304749;22;20286;-90
2022/03/02 11:14:56;;;;;;;;;;;;;;;;;;6281139;22;20238;-89
2022/03/02 11:17:22;;;;;;;;;;;;;;;;;;6280368;22;19918;-90
2022/03/02 11:19:48;;;;;;;;;;;;;;;;;;6306402;22;19926;-90
2022/03/02 11:22:16;;;;;;;;;;;;;;;;;;6277865;22;19918;-90
2022/03/02 11:24:42;;;;;;;;;;;;;;;;;;6280952;22;19925;-89
2022/03/02 11:27:08;;;;;;;;;;;;;;;;;;6278973;22;19918;-89
2022/03/02 11:29:34;;;;;;;;;;;;;;;;;;6306733;22;20243;-88
2022/03/02 11:32:00;;;;;;;;;;;;;;;;;;6276061;22;19919;-89
2022/03/02 11:34:26;;;;;;;;;;;;;;;;;;6279553;22;19918;-89
2022/03/02 11:36:52;;;;;;;;;;;;;;;;;;6278676;22;19918;-88
2022/03/02 11:39:18;;;;;;;;;;;;;;;;;;6304995;22;19925;-88
2022/03/02 11:41:44;;;;;;;;;;;;;;;;;;6304832;22;19963;-89
2022/03/02 11:44:13;;;;;;;;;;;;;;;;;;6303658;22;19971;-88
2022/03/02 11:46:39;;;;;;;;;;;;;;;;;;6279621;22;20335;-89
2022/03/02 11:49:05;;;;;;;;;;;;;;;;;;6277718;22;19922;-89
2022/03/02 11:51:31;;;;;;;;;;;;;;;;;;6276468;22;19919;-88
2022/03/02 11:53:58;;;;;;;;;;;;;;;;;;6274699;22;19972;-88
2022/03/02 11:56:24;;;;;;;;;;;;;;;;;;6303192;22;19919;-88
2022/03/02 11:58:50;;;;;;;;;;;;;;;;;;6302803;22;19918;-89
2022/03/02 12:01:16;;;;;;;;;;;;;;;;;;6277589;22;19990;-89
2022/03/02 12:03:42;;;;;;;;;;;;;;;;;;6303134;22;19918;-89
2022/03/02 12:06:10;;;;;;;;;;;;;;;;;;6305223;22;20182;-88
2022/03/02 12:08:36;;;;;;;;;;;;;;;;;;6196629;22;19924;-89
2022/03/02 12:20:52;;;;;;;;;;;;;;;;;;;;;
2022/03/02 12:53:58;;;;;;;;;;;;;;;;;;6252956;22;19919;-86
2022/03/02 12:56:24;;;;;;;;;;;;;;;;;;6218309;22;19919;-86
2022/03/02 12:58:50;;;;;;;;;;;;;;;;;;6218517;22;20380;-86
2022/03/02 13:01:16;;;;;;;;;;;;;;;;;;6216395;22;19973;-86
2022/03/02 13:03:42;;;;;;;;;;;;;;;;;;6219575;22;20319;-85
2022/03/02 13:06:07;;;;;;;;;;;;;;;;;;6218784;22;19919;-85
2022/03/02 13:08:36;;;;;;;;;;;;;;;;;;6218599;22;19969;-86
2022/03/02 13:11:02;;;;;;;;;;;;;;;;;;6220693;22;19978;-86
2022/03/02 13:13:28;;;;;;;;;;;;;;;;;;6219822;22;20319;-86
2022/03/02 13:15:54;;;;;;;;;;;;;;;;;;6217345;22;19922;-86
2022/03/02 13:18:20;;;;;;;;;;;;;;;;;;6243790;22;19919;-86
2022/03/02 13:20:46;;;;;;;;;;;;;;;;;;6246070;22;19968;-86
2022/03/02 13:23:12;;;;;;;;;;;;;;;;;;6220411;22;19919;-85
2022/03/02 13:25:38;;;;;;;;;;;;;;;;;;6218553;22;19919;-86
2022/03/02 13:28:04;;;;;;;;;;;;;;;;;;6242503;22;19915;-86
2022/03/02 13:30:30;;;;;;;;;;;;;;;;;;6242579;22;20014;-86
2022/03/02 13:32:56;;;;;;;;;;;;;;;;;;6217138;22;19955;-86
2022/03/02 13:35:24;;;;;;;;;;;;;;;;;;6218214;22;20302;-86
2022/03/02 13:37:50;;;;;;;;;;;;;;;;;;6269464;22;19916;-86
2022/03/02 13:40:16;;;;;;;;;;;;;;;;;;6217699;22;19926;-86
2022/03/02 13:42:45;;;;;;;;;;;;;;;;;;6243778;22;19915;-86
2022/03/02 13:47:58;;;;;;;;;;;;;;;;;;6229208;22;19922;-86
2022/03/02 13:50:25;;;;;;;;;;;;;;;;;;6218684;22;19923;-86
2022/03/02 13:52:50;;;;;;;;;;;;;;;;;;6244131;22;19923;-86
2022/03/02 13:55:18;;;;;;;;;;;;;;;;;;6243522;22;19942;-86
2022/03/02 13:57:44;;;;;;;;;;;;;;;;;;6245841;22;19919;-86
2022/03/02 14:00:10;;;;;;;;;;;;;;;;;;6220275;22;20365;-86
2022/03/02 14:02:36;;;;;;;;;;;;;;;;;;6245464;22;19954;-86
2022/03/02 14:05:02;;;;;;;;;;;;;;;;;;6217754;22;20041;-86
2022/03/02 14:07:31;;;;;;;;;;;;;;;;;;6243796;22;20058;-86
2022/03/02 14:09:57;;;;;;;;;;;;;;;;;;6243573;22;20460;-86
2022/03/02 14:12:23;;;;;;;;;;;;;;;;;;6219507;22;19915;-86
2022/03/02 14:14:49;;;;;;;;;;;;;;;;;;6218364;22;19916;-86
2022/03/02 14:17:15;;;;;;;;;;;;;;;;;;6217385;22;19919;-85
2022/03/02 14:19:41;;;;;;;;;;;;;;;;;;6220841;22;19954;-86
2022/03/02 14:22:09;;;;;;;;;;;;;;;;;;6217841;22;19978;-86
2022/03/02 14:24:35;;;;;;;;;;;;;;;;;;6244853;22;19915;-86
2022/03/02 14:27:02;;;;;;;;;;;;;;;;;;6243656;22;20322;-86
2022/03/02 14:29:28;;;;;;;;;;;;;;;;;;6243820;22;19927;-86
2022/03/02 14:31:55;;;;;;;;;;;;;;;;;;6241722;22;20386;-86
2022/03/02 14:34:23;;;;;;;;;;;;;;;;;;6210086;22;19930;-87
2022/03/02 14:36:49;;;;;;;;;;;;;;;;;;6241398;22;19946;-86
2022/03/02 14:39:15;;;;;;;;;;;;;;;;;;6215888;22;20335;-86
2022/03/02 14:41:43;;;;;;;;;;;;;;;;;;6216270;22;19951;-86
2022/03/02 14:44:12;;;;;;;;;;;;;;;;;;6215811;22;19923;-87
2022/03/02 14:46:38;;;;;;;;;;;;;;;;;;6242897;22;19950;-86
2022/03/02 14:49:07;;;;;;;;;;;;;;;;;;6219932;22;19945;-86
2022/03/02 14:51:33;;;;;;;;;;;;;;;;;;6221376;22;19927;-86
2022/03/02 14:54:02;;;;;;;;;;;;;;;;;;6219114;22;19919;-87
2022/03/02 14:56:36;;;;;;;;;;;;;;;;;;6221904;22;20147;-86
2022/03/02 14:59:02;;;;;;;;;;;;;;;;;;6221749;22;20052;-87
2022/03/02 15:01:29;;;;;;;;;;;;;;;;;;6221118;22;20445;-86
2022/03/02 15:04:06;;;;;;;;;;;;;;;;;;6241437;22;19925;-86
2022/03/02 15:06:36;;;;;;;;;;;;;;;;;;6218510;22;20000;-86
2022/03/02 15:09:04;;;;;;;;;;;;;;;;;;6219624;22;19945;-87
2022/03/02 15:11:30;;;;;;;;;;;;;;;;;;6244164;22;19926;-86
2022/03/02 15:16:41;;;;;;;;;;;;;;;;;;6245857;22;20391;-86
2022/03/02 15:19:07;;;;;;;;;;;;;;;;;;6243877;22;19919;-86
2022/03/02 15:21:33;;;;;;;;;;;;;;;;;;6218814;22;19950;-87
2022/03/02 15:23:59;;;;;;;;;;;;;;;;;;6216809;22;20003;-87
2022/03/02 15:26:25;;;;;;;;;;;;;;;;;;6216618;22;19958;-87
2022/03/02 15:28:51;;;;;;;;;;;;;;;;;;6241946;22;20038;-86
2022/03/02 15:31:17;;;;;;;;;;;;;;;;;;6216666;22;19946;-86
2022/03/02 15:33:43;;;;;;;;;;;;;;;;;;6243537;22;20493;-87
2022/03/02 15:36:11;;;;;;;;;;;;;;;;;;6217083;22;19989;-87
2022/03/02 15:38:37;;;;;;;;;;;;;;;;;;6212229;22;19919;-86
2022/03/02 15:41:03;;;;;;;;;;;;;;;;;;6216433;22;19915;-86
2022/03/02 15:43:29;;;;;;;;;;;;;;;;;;6239235;22;19924;-86
2022/03/02 15:45:55;;;;;;;;;;;;;;;;;;6217207;22;19918;-87
2022/03/02 15:48:22;;;;;;;;;;;;;;;;;;6241579;22;19919;-87
2022/03/02 15:50:48;;;;;;;;;;;;;;;;;;6215525;22;19923;-86
2022/03/02 15:53:16;;;;;;;;;;;;;;;;;;6242262;22;19923;-87
2022/03/02 15:55:43;;;;;;;;;;;;;;;;;;6216864;22;19947;-86
2022/03/02 15:58:09;;;;;;;;;;;;;;;;;;6240324;22;20014;-86
2022/03/02 16:00:35;;;;;;;;;;;;;;;;;;6218189;22;19986;-86
2022/03/02 16:03:01;;;;;;;;;;;;;;;;;;6243672;22;20303;-87
2022/03/02 16:05:27;;;;;;;;;;;;;;;;;;6217150;22;19990;-87
2022/03/02 16:07:53;;;;;;;;;;;;;;;;;;6244334;22;19919;-87
2022/03/02 16:10:19;;;;;;;;;;;;;;;;;;6217056;22;20010;-87
2022/03/02 16:12:45;;;;;;;;;;;;;;;;;;6239197;22;19923;-86
2022/03/02 16:15:12;;;;;;;;;;;;;;;;;;6217666;22;19967;-86
2022/03/02 16:20:24;;;;;;;;;;;;;;;;;;6233232;22;19946;-86
2022/03/02 16:22:50;;;;;;;;;;;;;;;;;;6244809;22;20378;-86
2022/03/02 16:25:16;;;;;;;;;;;;;;;;;;6217887;22;19958;-86
2022/03/02 16:27:42;;;;;;;;;;;;;;;;;;6217849;22;19941;-86
2022/03/02 16:30:08;;;;;;;;;;;;;;;;;;6242829;22;19927;-86
2022/03/02 16:32:39;;;;;;;;;;;;;;;;;;6245216;22;19927;-86
2022/03/02 16:35:05;;;;;;;;;;;;;;;;;;6242649;22;19935;-86
2022/03/02 16:37:31;;;;;;;;;;;;;;;;;;6218957;22;19915;-86
2022/03/02 16:39:57;;;;;;;;;;;;;;;;;;6216172;22;19925;-86
2022/03/02 16:42:23;;;;;;;;;;;;;;;;;;6217832;22;19982;-86
2022/03/02 16:44:49;;;;;;;;;;;;;;;;;;6217188;22;19927;-86
2022/03/02 16:47:16;;;;;;;;;;;;;;;;;;6241533;22;19981;-86
2022/03/02 16:49:45;;;;;;;;;;;;;;;;;;6240606;22;20327;-86
2022/03/02 16:52:11;;;;;;;;;;;;;;;;;;6242135;22;19941;-86
2022/03/02 16:54:38;;;;;;;;;;;;;;;;;;6218801;22;19919;-86
2022/03/02 16:57:04;;;;;;;;;;;;;;;;;;6241713;22;19915;-86
2022/03/02 16:59:30;;;;;;;;;;;;;;;;;;6217234;22;20243;-87
2022/03/02 17:02:02;;;;;;;;;;;;;;;;;;6217164;22;20323;-86
2022/03/02 17:04:30;;;;;;;;;;;;;;;;;;6217073;22;19915;-86
2022/03/02 17:06:59;;;;;;;;;;;;;;;;;;6217791;22;19958;-86
2022/03/02 17:09:25;;;;;;;;;;;;;;;;;;6240326;22;19923;-86
2022/03/02 17:11:58;;;;;;;;;;;;;;;;;;6240904;22;19922;-86
2022/03/02 17:14:27;;;;;;;;;;;;;;;;;;6216829;22;19919;-86
2022/03/02 17:16:53;;;;;;;;;;;;;;;;;;6241370;22;19919;-86
2022/03/02 17:19:19;;;;;;;;;;;;;;;;;;6217378;22;19981;-86
2022/03/02 17:21:45;;;;;;;;;;;;;;;;;;6217362;22;20418;-86
2022/03/02 17:24:11;;;;;;;;;;;;;;;;;;6242105;22;19919;-86
2022/03/02 17:26:39;;;;;;;;;;;;;;;;;;6216970;22;19970;-86
2022/03/02 17:29:05;;;;;;;;;;;;;;;;;;6217065;22;19923;-86
2022/03/02 17:31:32;;;;;;;;;;;;;;;;;;6217811;22;19946;-85
2022/03/02 17:33:58;;;;;;;;;;;;;;;;;;6216490;22;20228;-86